Lucky Thirteen — WDD8654 — position and weather

sailwx.info

Track history (hours):
 
Tides and Currents Weather Stations Pressure Air Temp Water Temp Dewpoint Dewpoint Depression Visibility Wind Speed Wind Dir Waves Ship Positions

Lucky Thirteen

Owner: Kristine L Inc., Barnegat Light, NJ. More information available from US FCC via Universal Licensing System and Coast Guard Vessel Documentation Center.

Last reported at 2016-Aug-26 09:32 UTC. Time now 2016-Aug-28 18:54 UTC.
Position N 39°46' W 074°04'.

Length 23 m.

Type: Fishing. MMSI: 367300990.

Date/timePositionNaut miles runAvg speedWind from/ knotsBaromVisibWave heightAir tempDewpointWater temp
2016-Aug-26 09:32N 39°46' W 074°04'3 0.9
2016-Aug-26 06:25N 39°45' W 074°07'0 0.0
2016-Aug-26 04:31N 39°45' W 074°07'0 0.0
2016-Aug-26 00:19N 39°45' W 074°07'0 0.0
2016-Aug-25 11:07N 39°45' W 074°07'0 0.0
2016-Aug-25 10:33N 39°45' W 074°07'0 0.0
2016-Aug-25 09:04N 39°45' W 074°07'0 0.0
2016-Aug-25 08:28N 39°45' W 074°07'0 0.0
2016-Aug-25 07:28N 39°45' W 074°07'0 0.0
2016-Aug-25 04:16N 39°45' W 074°07'0 0.0
2016-Aug-25 02:04N 39°45' W 074°07'0 0.0
2016-Aug-25 01:22N 39°45' W 074°07'0 0.3
2016-Aug-25 00:33N 39°45' W 074°07'8 7.2
2016-Aug-24 23:25N 39°46' W 073°56'2 0.0
2016-Aug-23 10:19N 39°46' W 073°59'6 3.3
2016-Aug-23 08:21N 39°45' W 074°07'0 0.0
2016-Aug-23 07:27N 39°45' W 074°07'0 0.0
2016-Aug-22 18:21N 39°45' W 074°07'0 0.0
2016-Aug-22 16:09N 39°45' W 074°07'0 0.0
2016-Aug-22 15:09N 39°45' W 074°07'0 0.0
2016-Aug-22 11:27N 39°45' W 074°07'0 0.0
2016-Aug-22 10:33N 39°45' W 074°07'0 0.0
2016-Aug-22 09:27N 39°45' W 074°07'0 0.0
2016-Aug-22 07:33N 39°45' W 074°07'0 0.0
2016-Aug-22 03:09N 39°45' W 074°07'0 0.0
2016-Aug-22 02:33N 39°45' W 074°07'0 0.0
2016-Aug-22 01:27N 39°45' W 074°07'0 0.0
2016-Aug-22 00:15N 39°45' W 074°07'0 0.0
2016-Aug-21 23:21N 39°45' W 074°07'0 0.0
2016-Aug-21 22:33N 39°45' W 074°07'0 0.0
2016-Aug-21 21:33N 39°45' W 074°07'0 0.0
2016-Aug-21 20:15N 39°45' W 074°07'0 0.0
2016-Aug-21 18:33N 39°45' W 074°07'0 0.0
2016-Aug-21 17:33N 39°45' W 074°07'0 0.0
2016-Aug-21 16:03N 39°45' W 074°07'0 0.0
2016-Aug-21 13:34N 39°45' W 074°07'0 0.0
2016-Aug-21 10:06N 39°45' W 074°07'0 0.0
2016-Aug-21 07:27N 39°45' W 074°07'0 0.0
2016-Aug-21 01:34N 39°45' W 074°07'0 0.0
2016-Aug-20 23:28N 39°45' W 074°07'0 0.0
2016-Aug-20 22:22N 39°45' W 074°07'0 0.0
2016-Aug-20 19:16N 39°45' W 074°07'0 0.0
2016-Aug-20 18:22N 39°45' W 074°07'0 0.0
2016-Aug-20 17:16N 39°45' W 074°07'1 0.3
2016-Aug-20 13:29N 39°46' W 074°06'7 7.4
2016-Aug-20 12:31N 39°46' W 073°56'1 0.1
2016-Aug-19 17:16N 39°46' W 073°58'7 7.9
2016-Aug-19 16:26N 39°46' W 074°07'8 0.4
2016-Aug-18 18:28N 39°46' W 073°56'8 7.7
2016-Aug-18 17:23N 39°45' W 074°07'0 0.1
2016-Aug-18 15:15N 39°45' W 074°07'0 0.0
2016-Aug-17 23:33N 39°45' W 074°07'0 0.0
2016-Aug-17 15:33N 39°45' W 074°07'0 0.0
2016-Aug-17 01:27N 39°45' W 074°07'0 0.0
2016-Aug-17 00:15N 39°45' W 074°07'0 0.0
2016-Aug-16 23:33N 39°45' W 074°07'0 0.0
2016-Aug-16 22:21N 39°45' W 074°07'3 1.1
2016-Aug-16 19:29N 39°46' W 074°03'  
Track history (hours):
 
Tides and Currents Weather Stations Pressure Air Temp Water Temp Dewpoint Dewpoint Depression Visibility Wind Speed Wind Dir Waves Ship Positions

Lucky Thirteen

Owner: Kristine L Inc., Barnegat Light, NJ. More information available from US FCC via Universal Licensing System and Coast Guard Vessel Documentation Center.

Last reported at 2016-Aug-26 09:32 UTC. Time now 2016-Aug-28 18:54 UTC.
Position N 39°46' W 074°04'.

Length 23 m.

Type: Fishing. MMSI: 367300990.

Date/timePositionNaut miles runAvg speedWind from/ knotsBaromVisibWave heightAir tempDewpointWater temp
2016-Aug-26 09:32N 39°46' W 074°04'3 0.9
2016-Aug-26 06:25N 39°45' W 074°07'0 0.0
2016-Aug-26 04:31N 39°45' W 074°07'0 0.0
2016-Aug-26 00:19N 39°45' W 074°07'0 0.0
2016-Aug-25 11:07N 39°45' W 074°07'0 0.0
2016-Aug-25 10:33N 39°45' W 074°07'0 0.0
2016-Aug-25 09:04N 39°45' W 074°07'0 0.0
2016-Aug-25 08:28N 39°45' W 074°07'0 0.0
2016-Aug-25 07:28N 39°45' W 074°07'0 0.0
2016-Aug-25 04:16N 39°45' W 074°07'0 0.0
2016-Aug-25 02:04N 39°45' W 074°07'0 0.0
2016-Aug-25 01:22N 39°45' W 074°07'0 0.3
2016-Aug-25 00:33N 39°45' W 074°07'8 7.2
2016-Aug-24 23:25N 39°46' W 073°56'2 0.0
2016-Aug-23 10:19N 39°46' W 073°59'6 3.3
2016-Aug-23 08:21N 39°45' W 074°07'0 0.0
2016-Aug-23 07:27N 39°45' W 074°07'0 0.0
2016-Aug-22 18:21N 39°45' W 074°07'0 0.0
2016-Aug-22 16:09N 39°45' W 074°07'0 0.0
2016-Aug-22 15:09N 39°45' W 074°07'0 0.0
2016-Aug-22 11:27N 39°45' W 074°07'0 0.0
2016-Aug-22 10:33N 39°45' W 074°07'0 0.0
2016-Aug-22 09:27N 39°45' W 074°07'0 0.0
2016-Aug-22 07:33N 39°45' W 074°07'0 0.0
2016-Aug-22 03:09N 39°45' W 074°07'0 0.0
2016-Aug-22 02:33N 39°45' W 074°07'0 0.0
2016-Aug-22 01:27N 39°45' W 074°07'0 0.0
2016-Aug-22 00:15N 39°45' W 074°07'0 0.0
2016-Aug-21 23:21N 39°45' W 074°07'0 0.0
2016-Aug-21 22:33N 39°45' W 074°07'0 0.0
2016-Aug-21 21:33N 39°45' W 074°07'0 0.0
2016-Aug-21 20:15N 39°45' W 074°07'0 0.0
2016-Aug-21 18:33N 39°45' W 074°07'0 0.0
2016-Aug-21 17:33N 39°45' W 074°07'0 0.0
2016-Aug-21 16:03N 39°45' W 074°07'0 0.0
2016-Aug-21 13:34N 39°45' W 074°07'0 0.0
2016-Aug-21 10:06N 39°45' W 074°07'0 0.0
2016-Aug-21 07:27N 39°45' W 074°07'0 0.0
2016-Aug-21 01:34N 39°45' W 074°07'0 0.0
2016-Aug-20 23:28N 39°45' W 074°07'0 0.0
2016-Aug-20 22:22N 39°45' W 074°07'0 0.0
2016-Aug-20 19:16N 39°45' W 074°07'0 0.0
2016-Aug-20 18:22N 39°45' W 074°07'0 0.0
2016-Aug-20 17:16N 39°45' W 074°07'1 0.3
2016-Aug-20 13:29N 39°46' W 074°06'7 7.4
2016-Aug-20 12:31N 39°46' W 073°56'1 0.1
2016-Aug-19 17:16N 39°46' W 073°58'7 7.9
2016-Aug-19 16:26N 39°46' W 074°07'8 0.4
2016-Aug-18 18:28N 39°46' W 073°56'8 7.7
2016-Aug-18 17:23N 39°45' W 074°07'0 0.1
2016-Aug-18 15:15N 39°45' W 074°07'0 0.0
2016-Aug-17 23:33N 39°45' W 074°07'0 0.0
2016-Aug-17 15:33N 39°45' W 074°07'0 0.0
2016-Aug-17 01:27N 39°45' W 074°07'0 0.0
2016-Aug-17 00:15N 39°45' W 074°07'0 0.0
2016-Aug-16 23:33N 39°45' W 074°07'0 0.0
2016-Aug-16 22:21N 39°45' W 074°07'3 1.1
2016-Aug-16 19:29N 39°46' W 074°03'  

Dump ship's entire track history